Wardell, MO (63879)

20:13 CDT le 04 mai 2015 (GMT -0500)
Peach Orchard | | Change Station
CLOSE
Current Station
Stations météorologiques personnelles
Location: Gideon, MO
Altitude: 263 ft
Stations météo à proximité

Alt. 263 ft 36.37 °N, 89.94 °W | Updated 3 minutes ago

Ciel dégagé
Ciel dégagé
76.7 ° F
Paraît 78 ° F
N
0.0
Vent Variable Vent de SSE
Gusts 0.0 mph

Aujourd'hui
Haut(e) -- | Bas -- ° F
--% Risque de précip.
Hier
Haut(e) -- | Bas -- ° F
Precip. -- pouce
6:03 AM 7:49 PM
Pleine lune, 99% visible
Pression 30.12 pouce
Visibilité 10.0 Miles terrestres
Nuages Ciel dégagé
indice de chaleur 78 ° F
Point de rosée 56 ° F
Humidité 48%
Précipitations 0.00 pouce
Profondeur de la couche neigeuse Non disponible.
UV 0 sur 12
Pollen 10.30 sur 12
Qualité de l'air Non disponible.
Flu Activity Sporadic
METAR KHKA 050053Z AUTO 18006KT 10SM CLR 24/11 A3013 RMK AO2 SLP200 T02440106

More Conditions Fewer Conditions

Pression 30.12 pouce
Visibilité 10.0 Miles terrestres
Nuages Ciel dégagé
indice de chaleur 78 ° F
Point de rosée 56 ° F
Humidité 48%
Précipitations 0.00 pouce
Profondeur de la couche neigeuse Non disponible.
UV 0 sur 12
Pollen 10.30 sur 12
Qualité de l'air Non disponible.
Flu Activity Sporadic
METAR KHKA 050053Z AUTO 18006KT 10SM CLR 24/11 A3013 RMK AO2 SLP200 T02440106

More Conditions Fewer Conditions

Nepal has a long way to go to dig out and rebuild from a devastating earthquake. We have teamed up with several charities and organizations to make contributing to the relief effort as easy as possible.
How you can help: Portlight Strategies | Red Cross

10-Day Weather Forecast

Almanac

Astronomie

May. 04, 2015 Lever Coucher
Temps réel
Crépuscule civil
Crépuscule nautique
Crépuscule astronomique
Lune
Durée de lumière visible
Longueur du jour
Tomorrow will be .
, % of the Moon is Illuminated

Extrêmes aujourd'hui

State Highs State Lows

Community

WunderPhotos

Upload Photos

1,818,768 Photos téléchargées !

WunderBlogs® & News

Nearby

Qualité de l'air

  Qualité de l'air Indice de la qualité de l'air Polluant
Not available.

Épaisseur de neige

Station Depth Altitude

Activité sismique

Ville Distance Mag. Time & Date
Minimum magnitude displayed is 2.5.

Températures des eaux côtières

Lieu Température

Stations

Stations météo à proximité

Emplacement de la station Température Refroidissement éolien Point de rosée Humidité Vent Precip. Alt. Mise à jour Type